Weather at Perth International Airport

Public forecast

Using degrees Celsius for public forecast. Weather courtesy of forecast.io.

Current aviation weather report (METAR) for Perth International Airport

2024/05/25 05:30 (retrieved 30 minutes ago)

YPPH 250530Z 27013KT 9999 VCSH BKN032 BKN060 23/15 Q1016 RF000/0004

Closest aviation forecast (TAF) to Perth International Airport

Forecast is more than 6 hours old.

Closest forecast is Haluoleo Airport, 1,711.7 nm (3,170.0 km) NNE.

2024/05/24 18:00 (retrieved 12 hours ago)

TAF WAWW 241700Z 2418/2506 00000KT 8000 SCT018 TEMPO 2418/2420 5000 RA FEW016CB BECMG 2420/2421 3000 BR